sensor_id;sensor_type;location;lat;lon;timestamp;P1;durP1;ratioP1;P2;durP2;ratioP2
72941;SDS011;69665;55.822;37.330;2024-03-08T00:02:14;7.38;;;2.05;;
72941;SDS011;69665;55.822;37.330;2024-03-08T00:04:39;5.07;;;2.00;;
72941;SDS011;69665;55.822;37.330;2024-03-08T00:07:05;5.32;;;1.95;;
72941;SDS011;69665;55.822;37.330;2024-03-08T00:09:34;5.65;;;2.30;;
72941;SDS011;69665;55.822;37.330;2024-03-08T00:11:59;6.38;;;2.40;;
72941;SDS011;69665;55.822;37.330;2024-03-08T00:14:25;5.60;;;1.90;;
72941;SDS011;69665;55.822;37.330;2024-03-08T00:16:51;5.82;;;2.00;;
72941;SDS011;69665;55.822;37.330;2024-03-08T00:19:18;7.22;;;2.00;;
72941;SDS011;69665;55.822;37.330;2024-03-08T00:21:43;6.95;;;2.33;;
72941;SDS011;69665;55.822;37.330;2024-03-08T00:24:10;6.15;;;1.98;;
72941;SDS011;69665;55.822;37.330;2024-03-08T00:26:37;6.30;;;2.35;;
72941;SDS011;69665;55.822;37.330;2024-03-08T00:29:03;7.68;;;2.28;;
72941;SDS011;69665;55.822;37.330;2024-03-08T00:31:29;5.80;;;2.30;;
72941;SDS011;69665;55.822;37.330;2024-03-08T00:33:56;4.85;;;2.00;;
72941;SDS011;69665;55.822;37.330;2024-03-08T00:36:22;5.78;;;2.05;;
72941;SDS011;69665;55.822;37.330;2024-03-08T00:38:48;5.07;;;1.80;;
72941;SDS011;69665;55.822;37.330;2024-03-08T00:41:14;5.43;;;2.08;;
72941;SDS011;69665;55.822;37.330;2024-03-08T00:43:40;4.95;;;1.90;;
72941;SDS011;69665;55.822;37.330;2024-03-08T00:46:05;6.72;;;2.40;;
72941;SDS011;69665;55.822;37.330;2024-03-08T00:48:31;6.90;;;2.20;;
72941;SDS011;69665;55.822;37.330;2024-03-08T00:50:57;5.85;;;1.80;;
72941;SDS011;69665;55.822;37.330;2024-03-08T00:53:23;5.45;;;2.25;;
72941;SDS011;69665;55.822;37.330;2024-03-08T00:55:48;6.97;;;2.42;;
72941;SDS011;69665;55.822;37.330;2024-03-08T00:58:14;7.20;;;2.30;;
72941;SDS011;69665;55.822;37.330;2024-03-08T01:00:40;4.20;;;1.55;;
72941;SDS011;69665;55.822;37.330;2024-03-08T01:03:06;7.10;;;2.45;;
72941;SDS011;69665;55.822;37.330;2024-03-08T01:05:32;5.07;;;1.85;;
72941;SDS011;69665;55.822;37.330;2024-03-08T01:07:58;5.50;;;2.00;;
72941;SDS011;69665;55.822;37.330;2024-03-08T01:10:24;6.75;;;2.30;;
72941;SDS011;69665;55.822;37.330;2024-03-08T01:12:50;6.90;;;2.25;;
72941;SDS011;69665;55.822;37.330;2024-03-08T01:15:16;7.43;;;2.17;;
72941;SDS011;69665;55.822;37.330;2024-03-08T01:17:41;5.05;;;2.05;;
72941;SDS011;69665;55.822;37.330;2024-03-08T01:20:09;6.90;;;1.95;;
72941;SDS011;69665;55.822;37.330;2024-03-08T01:22:38;5.50;;;1.77;;
72941;SDS011;69665;55.822;37.330;2024-03-08T01:25:04;6.43;;;2.25;;
72941;SDS011;69665;55.822;37.330;2024-03-08T01:27:30;6.88;;;2.38;;
72941;SDS011;69665;55.822;37.330;2024-03-08T01:29:56;7.03;;;2.10;;
72941;SDS011;69665;55.822;37.330;2024-03-08T01:32:24;5.65;;;1.90;;
72941;SDS011;69665;55.822;37.330;2024-03-08T01:34:50;4.60;;;2.20;;
72941;SDS011;69665;55.822;37.330;2024-03-08T01:37:17;7.50;;;3.05;;
72941;SDS011;69665;55.822;37.330;2024-03-08T01:39:42;5.97;;;2.08;;
72941;SDS011;69665;55.822;37.330;2024-03-08T01:42:08;8.05;;;2.05;;
72941;SDS011;69665;55.822;37.330;2024-03-08T01:44:34;4.82;;;2.20;;
72941;SDS011;69665;55.822;37.330;2024-03-08T01:47:00;7.70;;;2.13;;
72941;SDS011;69665;55.822;37.330;2024-03-08T01:49:26;6.03;;;2.00;;
72941;SDS011;69665;55.822;37.330;2024-03-08T01:51:53;5.78;;;1.67;;
72941;SDS011;69665;55.822;37.330;2024-03-08T01:54:22;5.82;;;1.98;;
72941;SDS011;69665;55.822;37.330;2024-03-08T01:56:48;5.90;;;1.95;;
72941;SDS011;69665;55.822;37.330;2024-03-08T01:59:15;8.35;;;1.83;;
72941;SDS011;69665;55.822;37.330;2024-03-08T02:01:45;9.18;;;2.13;;
72941;SDS011;69665;55.822;37.330;2024-03-08T02:04:13;6.38;;;2.22;;
72941;SDS011;69665;55.822;37.330;2024-03-08T02:06:38;5.32;;;1.95;;
72941;SDS011;69665;55.822;37.330;2024-03-08T02:09:04;6.00;;;2.15;;
72941;SDS011;69665;55.822;37.330;2024-03-08T02:11:33;5.88;;;2.08;;
72941;SDS011;69665;55.822;37.330;2024-03-08T02:14:00;7.68;;;2.30;;
72941;SDS011;69665;55.822;37.330;2024-03-08T02:16:26;5.63;;;2.00;;
72941;SDS011;69665;55.822;37.330;2024-03-08T02:18:51;4.82;;;1.77;;
72941;SDS011;69665;55.822;37.330;2024-03-08T02:21:17;7.10;;;2.40;;
72941;SDS011;69665;55.822;37.330;2024-03-08T02:23:43;7.00;;;2.38;;
72941;SDS011;69665;55.822;37.330;2024-03-08T02:26:09;9.70;;;2.03;;
72941;SDS011;69665;55.822;37.330;2024-03-08T02:28:36;5.82;;;2.00;;
72941;SDS011;69665;55.822;37.330;2024-03-08T02:31:01;4.53;;;2.10;;
72941;SDS011;69665;55.822;37.330;2024-03-08T02:33:27;7.45;;;2.33;;
72941;SDS011;69665;55.822;37.330;2024-03-08T02:35:54;5.93;;;1.75;;
72941;SDS011;69665;55.822;37.330;2024-03-08T02:38:21;6.93;;;2.42;;
72941;SDS011;69665;55.822;37.330;2024-03-08T02:40:50;6.57;;;2.70;;
72941;SDS011;69665;55.822;37.330;2024-03-08T02:43:17;4.45;;;1.95;;
72941;SDS011;69665;55.822;37.330;2024-03-08T02:45:44;7.45;;;2.88;;
72941;SDS011;69665;55.822;37.330;2024-03-08T02:48:11;5.85;;;2.20;;
72941;SDS011;69665;55.822;37.330;2024-03-08T02:50:38;7.10;;;2.10;;
72941;SDS011;69665;55.822;37.330;2024-03-08T02:53:08;8.20;;;2.30;;
72941;SDS011;69665;55.822;37.330;2024-03-08T02:55:35;7.28;;;2.53;;
72941;SDS011;69665;55.822;37.330;2024-03-08T02:58:03;6.63;;;2.38;;
72941;SDS011;69665;55.822;37.330;2024-03-08T03:00:30;9.63;;;2.90;;
72941;SDS011;69665;55.822;37.330;2024-03-08T03:02:57;5.72;;;2.42;;
72941;SDS011;69665;55.822;37.330;2024-03-08T03:05:23;7.20;;;2.70;;
72941;SDS011;69665;55.822;37.330;2024-03-08T03:07:50;6.95;;;2.67;;
72941;SDS011;69665;55.822;37.330;2024-03-08T03:10:17;6.20;;;3.03;;
72941;SDS011;69665;55.822;37.330;2024-03-08T03:12:43;8.07;;;2.53;;
72941;SDS011;69665;55.822;37.330;2024-03-08T03:15:11;7.47;;;2.58;;
72941;SDS011;69665;55.822;37.330;2024-03-08T03:17:38;7.00;;;2.42;;
72941;SDS011;69665;55.822;37.330;2024-03-08T03:20:08;7.95;;;2.33;;
72941;SDS011;69665;55.822;37.330;2024-03-08T03:22:39;6.78;;;2.72;;
72941;SDS011;69665;55.822;37.330;2024-03-08T03:25:12;6.95;;;2.67;;
72941;SDS011;69665;55.822;37.330;2024-03-08T03:27:39;7.97;;;2.40;;
72941;SDS011;69665;55.822;37.330;2024-03-08T03:30:05;7.55;;;2.92;;
72941;SDS011;69665;55.822;37.330;2024-03-08T03:32:50;8.27;;;2.47;;
72941;SDS011;69665;55.822;37.330;2024-03-08T03:35:17;7.18;;;2.83;;
72941;SDS011;69665;55.822;37.330;2024-03-08T03:37:44;4.70;;;2.15;;
72941;SDS011;69665;55.822;37.330;2024-03-08T03:40:17;6.97;;;3.05;;
72941;SDS011;69665;55.822;37.330;2024-03-08T03:42:44;9.23;;;3.45;;
72941;SDS011;69665;55.822;37.330;2024-03-08T03:45:11;7.00;;;2.67;;
72941;SDS011;69665;55.822;37.330;2024-03-08T03:47:36;9.77;;;2.53;;
72941;SDS011;69665;55.822;37.330;2024-03-08T03:50:04;9.07;;;2.58;;
72941;SDS011;69665;55.822;37.330;2024-03-08T03:52:31;7.65;;;2.90;;
72941;SDS011;69665;55.822;37.330;2024-03-08T03:54:57;6.03;;;2.47;;
72941;SDS011;69665;55.822;37.330;2024-03-08T03:57:23;7.57;;;2.72;;
72941;SDS011;69665;55.822;37.330;2024-03-08T03:59:49;6.65;;;2.40;;
72941;SDS011;69665;55.822;37.330;2024-03-08T04:02:16;7.93;;;3.00;;
72941;SDS011;69665;55.822;37.330;2024-03-08T04:04:43;6.82;;;2.42;;
72941;SDS011;69665;55.822;37.330;2024-03-08T04:07:10;6.55;;;2.20;;
72941;SDS011;69665;55.822;37.330;2024-03-08T04:09:36;8.27;;;2.70;;
72941;SDS011;69665;55.822;37.330;2024-03-08T04:12:02;9.43;;;3.38;;
72941;SDS011;69665;55.822;37.330;2024-03-08T04:14:28;7.15;;;2.30;;
72941;SDS011;69665;55.822;37.330;2024-03-08T04:16:53;7.20;;;2.88;;
72941;SDS011;69665;55.822;37.330;2024-03-08T04:19:20;8.73;;;2.78;;
72941;SDS011;69665;55.822;37.330;2024-03-08T04:21:45;10.43;;;2.70;;
72941;SDS011;69665;55.822;37.330;2024-03-08T04:24:12;8.38;;;2.72;;
72941;SDS011;69665;55.822;37.330;2024-03-08T04:26:38;9.05;;;2.58;;
72941;SDS011;69665;55.822;37.330;2024-03-08T04:29:05;7.57;;;2.65;;
72941;SDS011;69665;55.822;37.330;2024-03-08T04:31:30;8.98;;;2.78;;
72941;SDS011;69665;55.822;37.330;2024-03-08T04:33:57;8.55;;;3.25;;
72941;SDS011;69665;55.822;37.330;2024-03-08T04:36:23;7.90;;;2.90;;
72941;SDS011;69665;55.822;37.330;2024-03-08T04:38:50;7.80;;;2.70;;
72941;SDS011;69665;55.822;37.330;2024-03-08T04:41:17;8.15;;;3.03;;
72941;SDS011;69665;55.822;37.330;2024-03-08T04:43:43;6.95;;;2.63;;
72941;SDS011;69665;55.822;37.330;2024-03-08T04:46:09;6.90;;;2.60;;
72941;SDS011;69665;55.822;37.330;2024-03-08T04:48:35;7.70;;;2.50;;
72941;SDS011;69665;55.822;37.330;2024-03-08T04:51:02;10.43;;;3.20;;
72941;SDS011;69665;55.822;37.330;2024-03-08T04:53:29;9.30;;;3.40;;
72941;SDS011;69665;55.822;37.330;2024-03-08T04:55:55;7.70;;;2.70;;
72941;SDS011;69665;55.822;37.330;2024-03-08T04:58:23;7.45;;;3.25;;
72941;SDS011;69665;55.822;37.330;2024-03-08T05:00:49;7.72;;;2.80;;
72941;SDS011;69665;55.822;37.330;2024-03-08T05:03:16;7.35;;;3.15;;
72941;SDS011;69665;55.822;37.330;2024-03-08T05:05:41;8.10;;;2.88;;
72941;SDS011;69665;55.822;37.330;2024-03-08T05:08:07;9.20;;;3.55;;
72941;SDS011;69665;55.822;37.330;2024-03-08T05:10:33;7.57;;;2.55;;
72941;SDS011;69665;55.822;37.330;2024-03-08T05:12:59;9.48;;;3.63;;
72941;SDS011;69665;55.822;37.330;2024-03-08T05:15:25;11.77;;;3.50;;
72941;SDS011;69665;55.822;37.330;2024-03-08T05:17:50;7.47;;;3.03;;
72941;SDS011;69665;55.822;37.330;2024-03-08T05:20:16;7.10;;;2.72;;
72941;SDS011;69665;55.822;37.330;2024-03-08T05:22:45;7.57;;;3.05;;
72941;SDS011;69665;55.822;37.330;2024-03-08T05:25:11;11.63;;;3.20;;
72941;SDS011;69665;55.822;37.330;2024-03-08T05:27:37;10.27;;;2.90;;
72941;SDS011;69665;55.822;37.330;2024-03-08T05:30:03;9.13;;;3.00;;
72941;SDS011;69665;55.822;37.330;2024-03-08T05:32:30;8.50;;;3.28;;
72941;SDS011;69665;55.822;37.330;2024-03-08T05:34:56;9.75;;;3.83;;
72941;SDS011;69665;55.822;37.330;2024-03-08T05:37:23;9.82;;;3.22;;
72941;SDS011;69665;55.822;37.330;2024-03-08T05:39:48;11.13;;;3.45;;
72941;SDS011;69665;55.822;37.330;2024-03-08T05:42:14;9.07;;;3.22;;
72941;SDS011;69665;55.822;37.330;2024-03-08T05:44:40;8.40;;;3.25;;
72941;SDS011;69665;55.822;37.330;2024-03-08T05:47:06;8.02;;;3.55;;
72941;SDS011;69665;55.822;37.330;2024-03-08T05:49:32;8.82;;;3.30;;
72941;SDS011;69665;55.822;37.330;2024-03-08T05:51:59;8.43;;;3.03;;
72941;SDS011;69665;55.822;37.330;2024-03-08T05:54:25;9.75;;;3.08;;
72941;SDS011;69665;55.822;37.330;2024-03-08T05:56:52;9.15;;;3.22;;
72941;SDS011;69665;55.822;37.330;2024-03-08T05:59:20;7.25;;;2.55;;
72941;SDS011;69665;55.822;37.330;2024-03-08T06:01:46;10.23;;;3.33;;
72941;SDS011;69665;55.822;37.330;2024-03-08T06:04:12;9.23;;;2.90;;
72941;SDS011;69665;55.822;37.330;2024-03-08T06:06:38;7.22;;;2.75;;
72941;SDS011;69665;55.822;37.330;2024-03-08T06:09:05;8.63;;;2.63;;
72941;SDS011;69665;55.822;37.330;2024-03-08T06:11:56;7.72;;;3.00;;
72941;SDS011;69665;55.822;37.330;2024-03-08T06:14:22;8.30;;;3.00;;
72941;SDS011;69665;55.822;37.330;2024-03-08T06:16:48;6.68;;;2.85;;
72941;SDS011;69665;55.822;37.330;2024-03-08T06:19:15;9.15;;;2.40;;
72941;SDS011;69665;55.822;37.330;2024-03-08T06:21:41;9.30;;;2.92;;
72941;SDS011;69665;55.822;37.330;2024-03-08T06:24:07;7.55;;;3.28;;
72941;SDS011;69665;55.822;37.330;2024-03-08T06:26:32;8.10;;;3.30;;
72941;SDS011;69665;55.822;37.330;2024-03-08T06:28:59;9.23;;;2.97;;
72941;SDS011;69665;55.822;37.330;2024-03-08T06:31:27;8.20;;;2.90;;
72941;SDS011;69665;55.822;37.330;2024-03-08T06:33:53;7.15;;;2.95;;
72941;SDS011;69665;55.822;37.330;2024-03-08T06:36:21;8.73;;;3.65;;
72941;SDS011;69665;55.822;37.330;2024-03-08T06:38:50;7.35;;;2.92;;
72941;SDS011;69665;55.822;37.330;2024-03-08T06:41:16;8.50;;;2.80;;
72941;SDS011;69665;55.822;37.330;2024-03-08T06:43:42;8.63;;;2.50;;
72941;SDS011;69665;55.822;37.330;2024-03-08T06:46:09;9.05;;;3.08;;
72941;SDS011;69665;55.822;37.330;2024-03-08T06:48:38;8.85;;;3.10;;
72941;SDS011;69665;55.822;37.330;2024-03-08T06:51:04;6.75;;;2.45;;
72941;SDS011;69665;55.822;37.330;2024-03-08T06:53:30;6.38;;;2.08;;
72941;SDS011;69665;55.822;37.330;2024-03-08T06:55:57;8.25;;;2.92;;
72941;SDS011;69665;55.822;37.330;2024-03-08T06:58:26;6.95;;;2.70;;
72941;SDS011;69665;55.822;37.330;2024-03-08T07:00:53;7.40;;;2.90;;
72941;SDS011;69665;55.822;37.330;2024-03-08T07:03:19;7.07;;;2.63;;
72941;SDS011;69665;55.822;37.330;2024-03-08T07:05:47;6.90;;;2.90;;
72941;SDS011;69665;55.822;37.330;2024-03-08T07:08:13;7.38;;;2.80;;
72941;SDS011;69665;55.822;37.330;2024-03-08T07:10:39;7.65;;;2.50;;
72941;SDS011;69665;55.822;37.330;2024-03-08T07:13:08;8.63;;;2.83;;
72941;SDS011;69665;55.822;37.330;2024-03-08T07:15:34;6.80;;;2.90;;
72941;SDS011;69665;55.822;37.330;2024-03-08T07:18:00;7.28;;;2.58;;
72941;SDS011;69665;55.822;37.330;2024-03-08T07:20:26;5.88;;;2.25;;
72941;SDS011;69665;55.822;37.330;2024-03-08T07:22:54;7.82;;;2.92;;
72941;SDS011;69665;55.822;37.330;2024-03-08T07:25:20;7.60;;;2.88;;
72941;SDS011;69665;55.822;37.330;2024-03-08T07:27:53;8.43;;;2.40;;
72941;SDS011;69665;55.822;37.330;2024-03-08T07:30:20;9.77;;;2.90;;
72941;SDS011;69665;55.822;37.330;2024-03-08T07:33:05;6.50;;;2.80;;
72941;SDS011;69665;55.822;37.330;2024-03-08T07:35:33;5.35;;;2.47;;
72941;SDS011;69665;55.822;37.330;2024-03-08T07:38:09;9.55;;;3.47;;
72941;SDS011;69665;55.822;37.330;2024-03-08T07:40:38;8.70;;;3.00;;
72941;SDS011;69665;55.822;37.330;2024-03-08T07:43:07;6.28;;;2.70;;
72941;SDS011;69665;55.822;37.330;2024-03-08T07:45:33;7.22;;;2.92;;
72941;SDS011;69665;55.822;37.330;2024-03-08T07:47:58;6.97;;;2.67;;
72941;SDS011;69665;55.822;37.330;2024-03-08T07:50:24;7.05;;;2.85;;
72941;SDS011;69665;55.822;37.330;2024-03-08T07:52:50;7.75;;;3.28;;
72941;SDS011;69665;55.822;37.330;2024-03-08T07:55:16;7.65;;;3.05;;
72941;SDS011;69665;55.822;37.330;2024-03-08T07:57:42;9.65;;;3.65;;
72941;SDS011;69665;55.822;37.330;2024-03-08T08:00:08;8.18;;;3.65;;
72941;SDS011;69665;55.822;37.330;2024-03-08T08:02:36;7.75;;;3.42;;
72941;SDS011;69665;55.822;37.330;2024-03-08T08:05:02;7.88;;;3.40;;
72941;SDS011;69665;55.822;37.330;2024-03-08T08:07:29;7.65;;;3.17;;
72941;SDS011;69665;55.822;37.330;2024-03-08T08:09:55;8.35;;;3.15;;
72941;SDS011;69665;55.822;37.330;2024-03-08T08:12:21;9.85;;;3.92;;
72941;SDS011;69665;55.822;37.330;2024-03-08T08:14:47;10.68;;;4.15;;
72941;SDS011;69665;55.822;37.330;2024-03-08T08:17:13;9.73;;;3.42;;
72941;SDS011;69665;55.822;37.330;2024-03-08T08:19:40;7.63;;;3.28;;
72941;SDS011;69665;55.822;37.330;2024-03-08T08:22:06;9.07;;;3.67;;
72941;SDS011;69665;55.822;37.330;2024-03-08T08:24:34;9.43;;;3.58;;
72941;SDS011;69665;55.822;37.330;2024-03-08T08:27:02;10.18;;;3.72;;
72941;SDS011;69665;55.822;37.330;2024-03-08T08:29:28;9.57;;;3.50;;
72941;SDS011;69665;55.822;37.330;2024-03-08T08:31:57;7.15;;;3.25;;
72941;SDS011;69665;55.822;37.330;2024-03-08T08:34:25;7.47;;;3.45;;
72941;SDS011;69665;55.822;37.330;2024-03-08T08:36:52;8.52;;;3.70;;
72941;SDS011;69665;55.822;37.330;2024-03-08T08:39:18;7.50;;;3.28;;
72941;SDS011;69665;55.822;37.330;2024-03-08T08:41:44;8.40;;;3.45;;
72941;SDS011;69665;55.822;37.330;2024-03-08T08:44:12;8.05;;;3.22;;
72941;SDS011;69665;55.822;37.330;2024-03-08T08:46:38;9.20;;;3.45;;
72941;SDS011;69665;55.822;37.330;2024-03-08T08:49:04;10.27;;;4.20;;
72941;SDS011;69665;55.822;37.330;2024-03-08T08:51:34;6.90;;;3.45;;
72941;SDS011;69665;55.822;37.330;2024-03-08T08:53:59;10.65;;;3.58;;
72941;SDS011;69665;55.822;37.330;2024-03-08T08:56:25;9.75;;;3.78;;
72941;SDS011;69665;55.822;37.330;2024-03-08T08:58:52;14.13;;;5.40;;
72941;SDS011;69665;55.822;37.330;2024-03-08T09:01:21;10.88;;;4.18;;
72941;SDS011;69665;55.822;37.330;2024-03-08T09:03:47;9.85;;;3.95;;
72941;SDS011;69665;55.822;37.330;2024-03-08T09:06:12;10.27;;;3.72;;
72941;SDS011;69665;55.822;37.330;2024-03-08T09:08:41;9.75;;;3.90;;
72941;SDS011;69665;55.822;37.330;2024-03-08T09:11:09;10.10;;;3.97;;
72941;SDS011;69665;55.822;37.330;2024-03-08T09:13:35;11.73;;;4.78;;
72941;SDS011;69665;55.822;37.330;2024-03-08T09:16:04;12.43;;;4.22;;
72941;SDS011;69665;55.822;37.330;2024-03-08T09:18:32;11.15;;;4.53;;
72941;SDS011;69665;55.822;37.330;2024-03-08T09:20:58;11.60;;;4.82;;
72941;SDS011;69665;55.822;37.330;2024-03-08T09:23:25;9.00;;;4.10;;
72941;SDS011;69665;55.822;37.330;2024-03-08T09:25:58;11.50;;;4.00;;
72941;SDS011;69665;55.822;37.330;2024-03-08T09:28:26;9.48;;;4.22;;
72941;SDS011;69665;55.822;37.330;2024-03-08T09:30:52;9.52;;;3.88;;
72941;SDS011;69665;55.822;37.330;2024-03-08T09:33:18;10.23;;;4.20;;
72941;SDS011;69665;55.822;37.330;2024-03-08T09:35:45;7.45;;;3.38;;
72941;SDS011;69665;55.822;37.330;2024-03-08T09:38:16;8.50;;;4.00;;
72941;SDS011;69665;55.822;37.330;2024-03-08T09:40:42;9.90;;;3.70;;
72941;SDS011;69665;55.822;37.330;2024-03-08T09:43:08;8.70;;;3.75;;
72941;SDS011;69665;55.822;37.330;2024-03-08T09:45:37;8.40;;;3.83;;
72941;SDS011;69665;55.822;37.330;2024-03-08T09:48:13;9.18;;;3.63;;
72941;SDS011;69665;55.822;37.330;2024-03-08T09:50:42;7.70;;;3.60;;
72941;SDS011;69665;55.822;37.330;2024-03-08T09:53:09;7.35;;;3.30;;
72941;SDS011;69665;55.822;37.330;2024-03-08T09:55:47;7.35;;;3.35;;
72941;SDS011;69665;55.822;37.330;2024-03-08T09:58:17;7.50;;;3.40;;
72941;SDS011;69665;55.822;37.330;2024-03-08T10:00:45;8.35;;;3.40;;
72941;SDS011;69665;55.822;37.330;2024-03-08T10:03:12;7.95;;;3.38;;
72941;SDS011;69665;55.822;37.330;2024-03-08T10:05:41;10.40;;;3.58;;
72941;SDS011;69665;55.822;37.330;2024-03-08T10:08:07;8.95;;;4.15;;
72941;SDS011;69665;55.822;37.330;2024-03-08T10:10:36;7.65;;;3.33;;
72941;SDS011;69665;55.822;37.330;2024-03-08T10:13:06;8.68;;;4.18;;
72941;SDS011;69665;55.822;37.330;2024-03-08T10:17:58;9.02;;;3.35;;
72941;SDS011;69665;55.822;37.330;2024-03-08T10:20:24;9.43;;;3.38;;
72941;SDS011;69665;55.822;37.330;2024-03-08T10:22:52;9.32;;;3.50;;
72941;SDS011;69665;55.822;37.330;2024-03-08T10:25:19;8.00;;;3.50;;
72941;SDS011;69665;55.822;37.330;2024-03-08T10:27:45;9.52;;;3.80;;
72941;SDS011;69665;55.822;37.330;2024-03-08T10:30:12;7.75;;;3.30;;
72941;SDS011;69665;55.822;37.330;2024-03-08T10:32:40;8.13;;;3.45;;
72941;SDS011;69665;55.822;37.330;2024-03-08T10:35:09;8.65;;;3.35;;
72941;SDS011;69665;55.822;37.330;2024-03-08T10:37:47;11.18;;;3.20;;
72941;SDS011;69665;55.822;37.330;2024-03-08T10:40:26;6.57;;;3.15;;
72941;SDS011;69665;55.822;37.330;2024-03-08T10:42:53;9.52;;;3.30;;
72941;SDS011;69665;55.822;37.330;2024-03-08T10:53:26;7.85;;;3.78;;
72941;SDS011;69665;55.822;37.330;2024-03-08T10:55:57;8.20;;;3.15;;
72941;SDS011;69665;55.822;37.330;2024-03-08T10:58:27;8.75;;;3.58;;
72941;SDS011;69665;55.822;37.330;2024-03-08T11:00:54;6.75;;;2.90;;
72941;SDS011;69665;55.822;37.330;2024-03-08T11:06:08;8.18;;;3.33;;
72941;SDS011;69665;55.822;37.330;2024-03-08T11:09:01;7.97;;;2.97;;
72941;SDS011;69665;55.822;37.330;2024-03-08T11:11:31;8.65;;;3.17;;
72941;SDS011;69665;55.822;37.330;2024-03-08T11:14:00;7.07;;;2.85;;
72941;SDS011;69665;55.822;37.330;2024-03-08T11:18:55;8.55;;;3.40;;
72941;SDS011;69665;55.822;37.330;2024-03-08T11:21:30;8.30;;;2.90;;
72941;SDS011;69665;55.822;37.330;2024-03-08T11:24:12;6.85;;;2.92;;
72941;SDS011;69665;55.822;37.330;2024-03-08T11:26:40;6.78;;;3.38;;
72941;SDS011;69665;55.822;37.330;2024-03-08T11:32:07;7.05;;;3.10;;
72941;SDS011;69665;55.822;37.330;2024-03-08T11:34:48;7.95;;;3.65;;
72941;SDS011;69665;55.822;37.330;2024-03-08T11:37:18;7.60;;;3.00;;
72941;SDS011;69665;55.822;37.330;2024-03-08T11:39:47;8.43;;;3.15;;
72941;SDS011;69665;55.822;37.330;2024-03-08T11:42:17;6.40;;;2.85;;
72941;SDS011;69665;55.822;37.330;2024-03-08T11:44:50;7.72;;;3.03;;
72941;SDS011;69665;55.822;37.330;2024-03-08T11:47:16;6.82;;;2.83;;
72941;SDS011;69665;55.822;37.330;2024-03-08T11:49:45;8.40;;;2.97;;
72941;SDS011;69665;55.822;37.330;2024-03-08T11:52:14;6.72;;;2.70;;
72941;SDS011;69665;55.822;37.330;2024-03-08T11:54:53;6.18;;;2.47;;
72941;SDS011;69665;55.822;37.330;2024-03-08T11:57:22;5.80;;;2.58;;
72941;SDS011;69665;55.822;37.330;2024-03-08T11:59:55;8.25;;;3.17;;
72941;SDS011;69665;55.822;37.330;2024-03-08T12:02:22;6.82;;;2.70;;
72941;SDS011;69665;55.822;37.330;2024-03-08T12:04:55;7.65;;;3.15;;
72941;SDS011;69665;55.822;37.330;2024-03-08T12:07:23;10.30;;;3.17;;
72941;SDS011;69665;55.822;37.330;2024-03-08T12:12:48;6.88;;;2.70;;
72941;SDS011;69665;55.822;37.330;2024-03-08T12:15:17;8.32;;;2.88;;
72941;SDS011;69665;55.822;37.330;2024-03-08T12:17:44;7.43;;;3.20;;
72941;SDS011;69665;55.822;37.330;2024-03-08T12:20:20;7.40;;;3.00;;
72941;SDS011;69665;55.822;37.330;2024-03-08T12:22:48;7.05;;;3.08;;
72941;SDS011;69665;55.822;37.330;2024-03-08T12:25:14;8.45;;;2.80;;
72941;SDS011;69665;55.822;37.330;2024-03-08T12:27:42;6.90;;;2.67;;
72941;SDS011;69665;55.822;37.330;2024-03-08T12:30:17;6.47;;;2.45;;
72941;SDS011;69665;55.822;37.330;2024-03-08T12:32:58;5.50;;;2.40;;
72941;SDS011;69665;55.822;37.330;2024-03-08T12:35:29;7.70;;;3.10;;
72941;SDS011;69665;55.822;37.330;2024-03-08T12:37:58;7.60;;;2.97;;
72941;SDS011;69665;55.822;37.330;2024-03-08T12:40:29;5.63;;;2.47;;
72941;SDS011;69665;55.822;37.330;2024-03-08T12:43:01;7.82;;;2.47;;
72941;SDS011;69665;55.822;37.330;2024-03-08T12:45:32;6.15;;;2.33;;
72941;SDS011;69665;55.822;37.330;2024-03-08T12:47:58;6.68;;;2.63;;
72941;SDS011;69665;55.822;37.330;2024-03-08T12:50:25;7.53;;;3.47;;
72941;SDS011;69665;55.822;37.330;2024-03-08T12:52:51;7.30;;;2.70;;
72941;SDS011;69665;55.822;37.330;2024-03-08T12:55:21;6.30;;;2.47;;
72941;SDS011;69665;55.822;37.330;2024-03-08T12:57:46;6.60;;;2.90;;
72941;SDS011;69665;55.822;37.330;2024-03-08T13:00:14;7.30;;;2.58;;
72941;SDS011;69665;55.822;37.330;2024-03-08T13:02:49;6.88;;;2.60;;
72941;SDS011;69665;55.822;37.330;2024-03-08T13:05:16;6.25;;;2.25;;
72941;SDS011;69665;55.822;37.330;2024-03-08T13:07:42;5.88;;;2.13;;
72941;SDS011;69665;55.822;37.330;2024-03-08T13:10:12;5.75;;;2.22;;
72941;SDS011;69665;55.822;37.330;2024-03-08T13:12:42;5.43;;;1.95;;
72941;SDS011;69665;55.822;37.330;2024-03-08T13:15:08;8.07;;;2.65;;
72941;SDS011;69665;55.822;37.330;2024-03-08T13:17:37;7.40;;;2.65;;
72941;SDS011;69665;55.822;37.330;2024-03-08T13:20:06;9.55;;;2.85;;
72941;SDS011;69665;55.822;37.330;2024-03-08T13:25:07;6.55;;;2.40;;
72941;SDS011;69665;55.822;37.330;2024-03-08T13:27:41;5.35;;;2.40;;
72941;SDS011;69665;55.822;37.330;2024-03-08T13:30:11;4.90;;;2.15;;
72941;SDS011;69665;55.822;37.330;2024-03-08T13:32:40;8.07;;;2.30;;
72941;SDS011;69665;55.822;37.330;2024-03-08T13:35:09;6.72;;;2.40;;
72941;SDS011;69665;55.822;37.330;2024-03-08T13:37:39;5.95;;;2.28;;
72941;SDS011;69665;55.822;37.330;2024-03-08T13:40:05;6.20;;;2.67;;
72941;SDS011;69665;55.822;37.330;2024-03-08T13:42:31;5.55;;;2.22;;
72941;SDS011;69665;55.822;37.330;2024-03-08T13:44:57;6.90;;;2.65;;
72941;SDS011;69665;55.822;37.330;2024-03-08T13:47:23;6.65;;;2.65;;
72941;SDS011;69665;55.822;37.330;2024-03-08T13:49:50;8.27;;;4.30;;
72941;SDS011;69665;55.822;37.330;2024-03-08T13:52:16;6.90;;;2.40;;
72941;SDS011;69665;55.822;37.330;2024-03-08T13:54:43;7.38;;;3.00;;
72941;SDS011;69665;55.822;37.330;2024-03-08T13:57:11;6.32;;;2.65;;
72941;SDS011;69665;55.822;37.330;2024-03-08T13:59:37;7.60;;;3.80;;
72941;SDS011;69665;55.822;37.330;2024-03-08T14:02:03;7.93;;;3.28;;
72941;SDS011;69665;55.822;37.330;2024-03-08T14:04:30;8.45;;;3.42;;
72941;SDS011;69665;55.822;37.330;2024-03-08T14:06:55;10.80;;;3.38;;
72941;SDS011;69665;55.822;37.330;2024-03-08T14:09:29;8.93;;;3.22;;
72941;SDS011;69665;55.822;37.330;2024-03-08T14:11:56;8.65;;;2.53;;
72941;SDS011;69665;55.822;37.330;2024-03-08T14:14:22;8.05;;;3.20;;
72941;SDS011;69665;55.822;37.330;2024-03-08T14:16:49;8.55;;;3.20;;
72941;SDS011;69665;55.822;37.330;2024-03-08T14:21:45;7.63;;;2.00;;
72941;SDS011;69665;55.822;37.330;2024-03-08T14:24:12;7.20;;;2.65;;
72941;SDS011;69665;55.822;37.330;2024-03-08T14:26:37;7.32;;;2.58;;
72941;SDS011;69665;55.822;37.330;2024-03-08T14:29:04;7.60;;;2.15;;
72941;SDS011;69665;55.822;37.330;2024-03-08T14:31:31;6.35;;;2.58;;
72941;SDS011;69665;55.822;37.330;2024-03-08T14:33:57;6.03;;;2.20;;
72941;SDS011;69665;55.822;37.330;2024-03-08T14:36:25;6.00;;;1.98;;
72941;SDS011;69665;55.822;37.330;2024-03-08T14:38:53;5.50;;;2.45;;
72941;SDS011;69665;55.822;37.330;2024-03-08T14:41:19;6.50;;;2.30;;
72941;SDS011;69665;55.822;37.330;2024-03-08T14:43:45;5.30;;;2.05;;
72941;SDS011;69665;55.822;37.330;2024-03-08T14:46:11;5.93;;;2.40;;
72941;SDS011;69665;55.822;37.330;2024-03-08T14:48:45;5.68;;;2.72;;
72941;SDS011;69665;55.822;37.330;2024-03-08T14:51:21;5.65;;;2.00;;
72941;SDS011;69665;55.822;37.330;2024-03-08T14:53:52;7.18;;;2.22;;
72941;SDS011;69665;55.822;37.330;2024-03-08T14:56:20;6.35;;;2.13;;
72941;SDS011;69665;55.822;37.330;2024-03-08T14:58:52;6.43;;;2.20;;
72941;SDS011;69665;55.822;37.330;2024-03-08T15:01:23;6.13;;;2.45;;
72941;SDS011;69665;55.822;37.330;2024-03-08T15:03:55;7.53;;;2.33;;